Terminal Aerodrome Forecast
Issued by NWS

Home | Current Version | Previous Version | Text Only | Print | Product List | Glossary On
Versions: 1 2 3 4 5 6 7 8 9 10 11 12 13 14 15 16 17
000
FTUS43 KGRB 232300
TAFAUW
TAF
KAUW 232320Z 2400/2424 14007KT P6SM SCT050 OVC100
      TEMPO 2400/2404 -RA OVC040
     FM240400 12006KT P6SM SCT030 OVC050
      TEMPO 2404/2408 -RA BKN030
     FM240800 12009KT 3SM -RASN BKN020 OVC035 WS020/14030KT
     FM241400 11016G25KT 2SM -RA BR BKN012 OVC020 WS020/14040KT
     FM241900 12012G20KT 2SM -RA BR BKN007 OVC012 WS020/15045KT=

USA.gov is the U.S. government's official web portal to all federal, state and local government web resources and services.